createdAt,value
2018-07-31T06:14:50.391Z,26.90
2018-07-31T06:17:21.163Z,27.00
2018-07-31T06:19:52.059Z,27.20
2018-07-31T06:22:20.951Z,27.30
2018-07-31T06:24:49.783Z,27.50
2018-07-31T06:27:19.619Z,27.60
2018-07-31T06:29:49.450Z,27.90
2018-07-31T06:32:18.327Z,27.90
2018-07-31T06:34:47.103Z,27.90
2018-07-31T06:37:19.487Z,28.00
2018-07-31T06:39:50.579Z,28.10
2018-07-31T06:42:20.303Z,28.10
2018-07-31T06:44:49.107Z,28.10
2018-07-31T06:47:17.903Z,28.10
2018-07-31T06:52:18.915Z,28.30
2018-07-31T06:54:47.667Z,28.40
2018-07-31T06:57:16.519Z,28.50
2018-07-31T06:59:45.303Z,28.60
2018-07-31T07:02:17.371Z,28.80
2018-07-31T07:04:49.039Z,28.90
2018-07-31T07:07:18.851Z,28.90
2018-07-31T07:09:52.387Z,28.80
2018-07-31T07:12:22.159Z,29.00
2018-07-31T07:14:50.975Z,29.10
2018-07-31T07:17:20.788Z,29.30
2018-07-31T07:19:49.679Z,29.60
2018-07-31T07:22:18.524Z,29.80
2018-07-31T07:24:47.315Z,29.90
2018-07-31T07:27:17.107Z,30.00
2018-07-31T07:29:45.907Z,30.30
2018-07-31T07:32:14.787Z,30.60
2018-07-31T07:34:44.655Z,30.80
2018-07-31T07:37:13.514Z,30.90
2018-07-31T07:39:42.331Z,31.10
2018-07-31T07:42:11.042Z,31.20
2018-07-31T07:44:39.878Z,31.50
2018-07-31T07:47:13.562Z,31.50
2018-07-31T07:49:43.570Z,31.70
2018-07-31T07:52:17.754Z,31.70
2018-07-31T07:54:46.583Z,31.60
2018-07-31T07:57:16.870Z,31.90
2018-07-31T07:59:45.590Z,32.30
2018-07-31T08:02:19.863Z,32.70
2018-07-31T08:04:48.699Z,32.60
2018-07-31T08:07:17.462Z,32.60
2018-07-31T08:09:46.242Z,33.00
2018-07-31T08:12:15.939Z,33.40
2018-07-31T08:14:44.814Z,33.90
2018-07-31T08:17:13.570Z,33.90
2018-07-31T08:19:42.354Z,33.70
2018-07-31T08:22:12.215Z,34.10
2018-07-31T08:24:42.026Z,34.50
2018-07-31T08:27:13.977Z,34.90
2018-07-31T08:32:13.520Z,35.40
2018-07-31T08:34:42.350Z,35.60
2018-07-31T08:37:11.166Z,35.80
2018-07-31T08:39:45.648Z,35.80
2018-07-31T08:42:14.438Z,36.00
2018-07-31T08:44:45.179Z,36.10
2018-07-31T08:47:13.978Z,36.40
2018-07-31T08:49:42.766Z,36.70
2018-07-31T08:52:11.547Z,36.90
2018-07-31T08:54:41.350Z,37.60
2018-07-31T08:57:13.338Z,37.80
2018-07-31T08:59:45.481Z,38.00
2018-07-31T09:02:14.216Z,38.20
2018-07-31T09:07:14.407Z,38.20
2018-07-31T09:09:45.174Z,38.60
2018-07-31T09:14:43.320Z,39.40
2018-07-31T09:17:12.225Z,39.70
2018-07-31T09:19:40.954Z,39.70
2018-07-31T09:22:09.803Z,40.30
2018-07-31T09:24:39.634Z,41.00
2018-07-31T09:27:08.981Z,41.40
2018-07-31T09:29:37.799Z,41.30
2018-07-31T09:32:07.679Z,41.50
2018-07-31T09:34:46.273Z,42.00
2018-07-31T09:37:15.707Z,42.30
2018-07-31T09:39:45.557Z,42.00
2018-07-31T09:42:16.413Z,42.60
2018-07-31T09:44:45.185Z,42.90
2018-07-31T09:47:13.926Z,42.20
2018-07-31T09:49:42.658Z,42.30
2018-07-31T09:52:12.470Z,42.60
2018-07-31T09:54:46.391Z,43.40
2018-07-31T09:57:18.426Z,44.30
2018-07-31T09:59:49.156Z,43.90
2018-07-31T10:02:19.934Z,43.50
2018-07-31T10:07:17.143Z,44.40
2018-07-31T10:09:46.422Z,44.40
2018-07-31T10:12:15.338Z,44.60
2018-07-31T10:14:45.402Z,44.70
2018-07-31T10:17:14.172Z,45.20
2018-07-31T10:19:43.118Z,45.70
2018-07-31T10:22:12.770Z,46.00
2018-07-31T10:24:46.199Z,46.40
2018-07-31T10:27:15.978Z,46.40
2018-07-31T10:29:44.738Z,46.90
2018-07-31T10:32:14.562Z,47.90
2018-07-31T10:34:45.330Z,48.80
2018-07-31T10:37:14.246Z,48.40
2018-07-31T10:39:44.007Z,46.70
2018-07-31T10:42:17.034Z,45.30
2018-07-31T10:44:45.765Z,44.30
2018-07-31T10:47:16.486Z,44.50
2018-07-31T10:49:45.290Z,45.20
2018-07-31T10:52:15.794Z,44.60
2018-07-31T10:54:44.506Z,45.20
2018-07-31T10:57:13.222Z,45.60
2018-07-31T10:59:43.117Z,46.00
2018-07-31T11:02:22.502Z,45.70
2018-07-31T11:04:55.234Z,46.50
2018-07-31T11:07:23.990Z,46.70
2018-07-31T11:09:53.831Z,47.60
2018-07-31T11:12:23.630Z,48.00
2018-07-31T11:14:53.366Z,47.80
2018-07-31T11:17:22.262Z,46.10
2018-07-31T11:22:24.443Z,45.00
2018-07-31T11:24:54.267Z,46.10
2018-07-31T11:27:26.632Z,46.50
2018-07-31T11:29:55.390Z,46.90
2018-07-31T11:32:24.187Z,47.80
2018-07-31T11:34:56.882Z,48.00
2018-07-31T11:37:29.973Z,47.70
2018-07-31T11:40:04.270Z,47.20
2018-07-31T11:42:38.150Z,47.00
2018-07-31T11:45:06.994Z,48.20
2018-07-31T11:47:35.818Z,48.30
2018-07-31T11:50:05.719Z,47.80
2018-07-31T11:52:36.443Z,46.80
2018-07-31T11:55:05.346Z,46.00
2018-07-31T11:57:34.210Z,46.00
2018-07-31T12:00:06.818Z,46.00
2018-07-31T12:02:36.575Z,46.30
2018-07-31T12:05:11.582Z,47.40
2018-07-31T12:07:40.510Z,48.00
2018-07-31T12:10:09.246Z,48.90
2018-07-31T12:12:38.178Z,49.00
2018-07-31T12:15:09.926Z,48.30
2018-07-31T12:17:38.770Z,48.90
2018-07-31T12:20:07.633Z,49.80
2018-07-31T12:22:37.409Z,50.50
2018-07-31T12:25:06.187Z,50.10
2018-07-31T12:27:36.926Z,48.60
2018-07-31T12:30:10.333Z,47.20
2018-07-31T12:32:40.154Z,47.30
2018-07-31T12:35:10.231Z,48.20
2018-07-31T12:37:44.227Z,48.60
2018-07-31T12:40:13.186Z,47.70
2018-07-31T12:42:43.914Z,46.10
2018-07-31T12:45:14.759Z,45.50
2018-07-31T12:47:43.529Z,45.60
2018-07-31T12:50:12.313Z,45.80
2018-07-31T12:52:41.114Z,45.50
2018-07-31T12:55:13.802Z,45.80
2018-07-31T12:57:44.566Z,46.60
2018-07-31T13:00:13.482Z,46.80
2018-07-31T13:02:45.274Z,47.30
2018-07-31T13:05:19.238Z,47.50
2018-07-31T13:07:54.141Z,47.30
2018-07-31T13:10:23.946Z,48.60
2018-07-31T13:12:53.842Z,48.20
2018-07-31T13:15:25.930Z,47.40
2018-07-31T13:17:58.148Z,47.00
2018-07-31T13:20:26.958Z,46.40
2018-07-31T13:22:56.801Z,45.80
2018-07-31T13:25:29.266Z,46.70
2018-07-31T13:28:00.099Z,46.80
2018-07-31T13:30:32.718Z,47.20
2018-07-31T13:33:01.546Z,48.20
2018-07-31T13:35:30.374Z,48.40
2018-07-31T13:40:27.622Z,47.80
2018-07-31T13:42:56.346Z,48.30
2018-07-31T13:45:27.133Z,48.60
2018-07-31T13:47:57.973Z,49.30
2018-07-31T13:50:27.757Z,50.70
2018-07-31T13:52:56.563Z,50.80
2018-07-31T13:57:55.754Z,51.10
2018-07-31T14:00:26.114Z,51.00
2018-07-31T14:02:54.967Z,50.80
2018-07-31T14:05:27.890Z,51.90
2018-07-31T14:07:57.698Z,51.10
2018-07-31T14:10:26.452Z,50.40
2018-07-31T14:12:55.195Z,50.00
2018-07-31T14:15:24.967Z,49.30
2018-07-31T14:17:53.806Z,48.30
2018-07-31T14:20:24.644Z,46.70
2018-07-31T14:22:53.507Z,46.50
2018-07-31T14:25:23.230Z,47.80
2018-07-31T14:30:21.584Z,48.50
2018-07-31T14:32:50.351Z,49.20
2018-07-31T14:35:19.151Z,49.50
2018-07-31T14:37:53.358Z,49.60
2018-07-31T14:40:22.114Z,49.20
2018-07-31T14:42:51.002Z,48.50
2018-07-31T14:45:22.698Z,48.40
2018-07-31T14:47:53.526Z,48.20
2018-07-31T14:50:22.263Z,48.70
2018-07-31T14:52:51.050Z,48.70
2018-07-31T14:55:19.814Z,49.00
2018-07-31T14:57:50.642Z,49.50
2018-07-31T15:00:21.466Z,49.40
2018-07-31T15:02:54.278Z,49.80
2018-07-31T15:05:29.886Z,50.00
2018-07-31T15:07:59.790Z,49.60
2018-07-31T15:10:28.654Z,49.10
2018-07-31T15:12:58.460Z,48.70
2018-07-31T15:15:35.482Z,48.70
2018-07-31T15:18:04.290Z,48.90
2018-07-31T15:20:33.081Z,48.70
2018-07-31T15:23:11.494Z,47.70
2018-07-31T15:25:44.858Z,46.50
2018-07-31T15:28:13.758Z,45.60
2018-07-31T15:30:43.410Z,43.70
2018-07-31T15:33:12.204Z,42.10
2018-07-31T15:35:43.052Z,40.90
2018-07-31T15:38:15.078Z,39.80
2018-07-31T15:43:12.362Z,38.30
2018-07-31T15:45:43.081Z,37.70
2018-07-31T15:48:12.995Z,37.10
2018-07-31T15:50:41.684Z,36.80
2018-07-31T15:53:12.562Z,36.40
2018-07-31T15:55:41.419Z,36.20
2018-07-31T15:58:14.382Z,35.90
2018-07-31T16:00:43.130Z,35.70
2018-07-31T16:05:41.456Z,35.50
2018-07-31T16:08:10.289Z,35.30
2018-07-31T16:10:39.062Z,35.30
2018-07-31T16:13:07.846Z,35.20
2018-07-31T16:15:36.619Z,35.10
2018-07-31T16:18:29.308Z,35.00
2018-07-31T16:23:29.826Z,34.70
2018-07-31T16:26:00.944Z,34.40
2018-07-31T16:28:41.341Z,34.10
2018-07-31T16:31:10.170Z,33.70
2018-07-31T16:33:42.690Z,33.20
2018-07-31T16:36:11.490Z,33.00
2018-07-31T16:38:40.298Z,32.70
2018-07-31T16:41:09.335Z,32.50
2018-07-31T16:43:40.079Z,32.40
2018-07-31T16:46:14.938Z,32.10
2018-07-31T16:48:43.801Z,32.00
2018-07-31T16:51:15.755Z,31.80
2018-07-31T16:53:44.470Z,31.80
2018-07-31T16:56:17.614Z,31.70
2018-07-31T16:58:56.138Z,31.60
2018-07-31T17:01:24.930Z,31.50
2018-07-31T17:03:55.678Z,31.50
2018-07-31T17:06:40.810Z,31.50
2018-07-31T17:09:09.690Z,31.40
2018-07-31T17:11:38.407Z,31.40
2018-07-31T17:14:08.254Z,31.40
2018-07-31T17:16:40.830Z,31.40
2018-07-31T17:19:19.346Z,31.40
2018-07-31T17:21:48.121Z,31.60
2018-07-31T17:24:21.950Z,31.70
2018-07-31T17:26:52.760Z,31.70
2018-07-31T17:29:24.782Z,31.70
2018-07-31T17:31:53.670Z,31.70
2018-07-31T17:34:24.418Z,32.00
2018-07-31T17:36:58.662Z,32.40
2018-07-31T17:39:33.158Z,32.60
2018-07-31T17:42:01.994Z,32.60
2018-07-31T17:44:30.783Z,32.40
2018-07-31T17:47:00.570Z,32.30
2018-07-31T17:49:35.030Z,32.30
2018-07-31T17:52:07.625Z,32.20
2018-07-31T17:54:37.114Z,32.20
2018-07-31T17:57:08.194Z,32.30
2018-07-31T17:59:37.031Z,32.30
2018-07-31T18:02:06.058Z,32.30
2018-07-31T18:04:34.903Z,32.30
2018-07-31T18:07:05.794Z,32.20
2018-07-31T18:09:36.590Z,31.90
2018-07-31T18:12:11.454Z,31.70
2018-07-31T18:14:40.333Z,31.50
2018-07-31T18:17:09.129Z,31.40
2018-07-31T18:19:37.957Z,31.30
2018-07-31T18:22:07.182Z,31.20
2018-07-31T18:24:36.082Z,30.90
2018-07-31T18:27:05.008Z,30.70
2018-07-31T18:29:34.750Z,30.40
2018-07-31T18:32:03.618Z,30.10
2018-07-31T18:34:32.336Z,29.90
2018-07-31T18:37:01.065Z,29.70
2018-07-31T18:39:30.234Z,29.50
2018-07-31T18:41:58.961Z,29.30
2018-07-31T18:44:28.778Z,29.10
2018-07-31T18:46:58.477Z,28.80
2018-07-31T18:49:27.305Z,28.60
2018-07-31T18:51:57.162Z,28.40
2018-07-31T18:54:26.829Z,28.30
2018-07-31T18:56:55.666Z,28.10
2018-07-31T18:59:25.561Z,28.10
2018-07-31T19:01:55.303Z,27.90
2018-07-31T19:04:24.133Z,27.70
2018-07-31T19:06:52.886Z,27.40
2018-07-31T19:09:21.630Z,27.20
2018-07-31T19:11:50.354Z,27.10
2018-07-31T19:14:24.773Z,27.00
2018-07-31T19:16:53.594Z,26.90
2018-07-31T19:19:25.468Z,26.80
2018-07-31T19:21:57.441Z,26.80
2018-07-31T19:24:30.481Z,26.90
2018-07-31T19:27:00.401Z,26.80
2018-07-31T19:29:29.238Z,26.80
2018-07-31T19:32:00.086Z,26.70
2018-07-31T19:34:32.755Z,26.70
2018-07-31T19:37:02.514Z,26.60
2018-07-31T19:39:32.329Z,26.50
2018-07-31T19:42:01.108Z,26.40
2018-07-31T19:44:30.893Z,26.20
2018-07-31T19:47:00.653Z,26.20
2018-07-31T19:49:29.397Z,26.10
2018-07-31T19:51:58.184Z,26.10
2018-07-31T19:54:29.017Z,25.90
2018-07-31T19:56:57.773Z,25.70
2018-07-31T19:59:26.590Z,25.50
2018-07-31T20:01:55.355Z,25.50
2018-07-31T20:04:24.509Z,25.40
2018-07-31T20:06:53.301Z,25.30
2018-07-31T20:09:22.165Z,25.20
2018-07-31T20:11:51.073Z,25.30
2018-07-31T20:14:19.894Z,25.40
2018-07-31T20:16:56.406Z,25.40
2018-07-31T20:19:25.194Z,25.50
2018-07-31T20:21:56.006Z,25.50
2018-07-31T20:24:26.918Z,25.40
2018-07-31T20:26:55.759Z,25.30
2018-07-31T20:29:24.545Z,25.10
2018-07-31T20:31:53.458Z,25.00
2018-07-31T20:34:22.349Z,24.90
2018-07-31T20:36:54.697Z,24.70
2018-07-31T20:39:23.489Z,24.70
2018-07-31T20:41:53.330Z,24.60
2018-07-31T20:44:22.190Z,24.40
2018-07-31T20:46:51.021Z,24.20
2018-07-31T20:49:19.841Z,24.10
2018-07-31T20:51:49.631Z,24.00
2018-07-31T20:54:24.251Z,24.00
2018-07-31T20:56:53.261Z,23.90
2018-07-31T20:59:23.729Z,23.80
2018-07-31T21:01:57.253Z,23.80
2018-07-31T21:04:26.162Z,23.70
2018-07-31T21:06:55.074Z,23.70
2018-07-31T21:09:23.893Z,23.60
2018-07-31T21:11:52.809Z,23.50
2018-07-31T21:14:21.678Z,23.50
2018-07-31T21:16:50.513Z,23.50
2018-07-31T21:19:19.357Z,23.40
2018-07-31T21:21:49.209Z,23.20
2018-07-31T21:24:18.111Z,23.10
2018-07-31T21:26:46.940Z,23.00
2018-07-31T21:29:16.788Z,22.90
2018-07-31T21:31:45.745Z,22.80
2018-07-31T21:34:14.617Z,22.70
2018-07-31T21:36:45.453Z,22.70
2018-07-31T21:39:14.304Z,22.60
2018-07-31T21:41:43.049Z,22.50
2018-07-31T21:44:11.920Z,22.50
2018-07-31T21:46:40.783Z,22.50
2018-07-31T21:49:09.676Z,22.50
2018-07-31T21:51:42.249Z,22.50
2018-07-31T21:54:13.136Z,22.40
2018-07-31T21:56:42.077Z,22.40
2018-07-31T21:59:11.965Z,22.30
2018-07-31T22:01:40.805Z,22.20
2018-07-31T22:04:13.485Z,22.10
2018-07-31T22:06:42.269Z,22.00
2018-07-31T22:09:15.469Z,21.90
2018-07-31T22:11:49.161Z,21.90
2018-07-31T22:14:18.897Z,21.90
2018-07-31T22:19:17.254Z,21.90
2018-07-31T22:21:47.104Z,21.80
2018-07-31T22:24:16.013Z,21.70
2018-07-31T22:26:45.053Z,21.60
2018-07-31T22:29:14.909Z,21.50
2018-07-31T22:31:45.820Z,21.40
2018-07-31T22:34:16.658Z,21.40
2018-07-31T22:36:45.444Z,21.40
2018-07-31T22:39:16.312Z,21.40
2018-07-31T22:41:46.140Z,21.40
2018-07-31T22:44:18.620Z,21.50
2018-07-31T22:46:50.660Z,21.50
2018-07-31T22:49:19.596Z,21.30
2018-07-31T22:51:48.412Z,21.10
2018-07-31T22:54:17.236Z,20.90
2018-07-31T22:56:46.084Z,20.90
2018-07-31T22:59:20.372Z,20.90
2018-07-31T23:01:51.176Z,20.90
2018-07-31T23:04:20.000Z,21.00
2018-07-31T23:06:49.844Z,21.00
2018-07-31T23:09:19.669Z,21.00
2018-07-31T23:14:19.984Z,21.00
2018-07-31T23:16:48.780Z,20.90
2018-07-31T23:19:17.572Z,20.90
2018-07-31T23:21:47.440Z,20.90
2018-07-31T23:24:17.328Z,20.80
2018-07-31T23:26:50.632Z,20.70
2018-07-31T23:29:20.448Z,20.70
2018-07-31T23:31:49.349Z,20.80
2018-07-31T23:34:18.234Z,20.70
2018-07-31T23:36:47.188Z,20.60
2018-07-31T23:41:44.585Z,20.70
2018-07-31T23:44:13.468Z,20.80
2018-07-31T23:46:42.369Z,21.10
2018-07-31T23:49:12.164Z,21.20
2018-07-31T23:51:40.957Z,21.20
2018-07-31T23:54:18.168Z,21.10
2018-07-31T23:56:49.204Z,21.10
2018-07-31T23:59:19.096Z,21.00
